sensor_id;sensor_type;location;lat;lon;timestamp;temperature;humidity
45837;DHT22;31548;51.420;-0.040;2022-08-21T00:01:51;18.10;99.90
45837;DHT22;31548;51.420;-0.040;2022-08-21T00:04:19;18.00;99.90
45837;DHT22;31548;51.420;-0.040;2022-08-21T00:06:50;18.00;99.90
45837;DHT22;31548;51.420;-0.040;2022-08-21T00:09:19;18.00;99.90
45837;DHT22;31548;51.420;-0.040;2022-08-21T00:11:47;18.00;99.90
45837;DHT22;31548;51.420;-0.040;2022-08-21T00:14:16;17.90;99.90
45837;DHT22;31548;51.420;-0.040;2022-08-21T00:16:44;17.90;99.90
45837;DHT22;31548;51.420;-0.040;2022-08-21T00:19:12;17.80;99.90
45837;DHT22;31548;51.420;-0.040;2022-08-21T00:21:39;17.90;99.90
45837;DHT22;31548;51.420;-0.040;2022-08-21T00:24:11;17.90;99.90
45837;DHT22;31548;51.420;-0.040;2022-08-21T00:26:39;17.90;99.90
45837;DHT22;31548;51.420;-0.040;2022-08-21T00:29:07;17.80;99.90
45837;DHT22;31548;51.420;-0.040;2022-08-21T00:31:35;17.70;99.90
45837;DHT22;31548;51.420;-0.040;2022-08-21T00:34:03;17.70;99.90
45837;DHT22;31548;51.420;-0.040;2022-08-21T00:36:31;17.70;99.90
45837;DHT22;31548;51.420;-0.040;2022-08-21T00:38:59;17.70;99.90
45837;DHT22;31548;51.420;-0.040;2022-08-21T00:41:27;17.60;99.90
45837;DHT22;31548;51.420;-0.040;2022-08-21T00:44:10;17.50;99.90
45837;DHT22;31548;51.420;-0.040;2022-08-21T00:46:39;17.50;99.90
45837;DHT22;31548;51.420;-0.040;2022-08-21T00:49:09;17.50;99.90
45837;DHT22;31548;51.420;-0.040;2022-08-21T00:51:57;17.50;99.90
45837;DHT22;31548;51.420;-0.040;2022-08-21T00:54:29;17.50;99.90
45837;DHT22;31548;51.420;-0.040;2022-08-21T00:57:01;17.50;99.90
45837;DHT22;31548;51.420;-0.040;2022-08-21T00:59:33;17.50;99.90
45837;DHT22;31548;51.420;-0.040;2022-08-21T01:02:04;17.50;99.90
45837;DHT22;31548;51.420;-0.040;2022-08-21T01:04:33;17.50;99.90
45837;DHT22;31548;51.420;-0.040;2022-08-21T01:07:01;17.40;99.90
45837;DHT22;31548;51.420;-0.040;2022-08-21T01:09:29;17.50;99.90
45837;DHT22;31548;51.420;-0.040;2022-08-21T01:11:57;17.40;99.90
45837;DHT22;31548;51.420;-0.040;2022-08-21T01:14:26;17.50;99.90
45837;DHT22;31548;51.420;-0.040;2022-08-21T01:16:57;17.40;99.90
45837;DHT22;31548;51.420;-0.040;2022-08-21T01:19:26;17.40;99.90
45837;DHT22;31548;51.420;-0.040;2022-08-21T01:21:55;17.40;99.90
45837;DHT22;31548;51.420;-0.040;2022-08-21T01:24:23;17.40;99.90
45837;DHT22;31548;51.420;-0.040;2022-08-21T01:26:51;17.30;99.90
45837;DHT22;31548;51.420;-0.040;2022-08-21T01:29:57;17.30;99.90
45837;DHT22;31548;51.420;-0.040;2022-08-21T01:32:26;17.30;99.90
45837;DHT22;31548;51.420;-0.040;2022-08-21T01:34:53;17.30;99.90
45837;DHT22;31548;51.420;-0.040;2022-08-21T01:37:22;17.20;99.90
45837;DHT22;31548;51.420;-0.040;2022-08-21T01:39:50;17.20;99.90
45837;DHT22;31548;51.420;-0.040;2022-08-21T01:42:17;17.20;99.90
45837;DHT22;31548;51.420;-0.040;2022-08-21T01:44:45;17.20;99.90
45837;DHT22;31548;51.420;-0.040;2022-08-21T01:47:15;17.20;99.90
45837;DHT22;31548;51.420;-0.040;2022-08-21T01:49:44;17.10;99.90
45837;DHT22;31548;51.420;-0.040;2022-08-21T01:52:12;17.20;99.90
45837;DHT22;31548;51.420;-0.040;2022-08-21T01:54:40;17.10;99.90
45837;DHT22;31548;51.420;-0.040;2022-08-21T01:57:08;17.10;99.90
45837;DHT22;31548;51.420;-0.040;2022-08-21T01:59:36;17.10;99.90
45837;DHT22;31548;51.420;-0.040;2022-08-21T02:02:05;17.10;99.90
45837;DHT22;31548;51.420;-0.040;2022-08-21T02:04:33;17.10;99.90
45837;DHT22;31548;51.420;-0.040;2022-08-21T02:07:01;17.10;99.90
45837;DHT22;31548;51.420;-0.040;2022-08-21T02:09:30;17.10;99.90
45837;DHT22;31548;51.420;-0.040;2022-08-21T02:11:58;17.00;99.90
45837;DHT22;31548;51.420;-0.040;2022-08-21T02:14:26;17.10;99.90
45837;DHT22;31548;51.420;-0.040;2022-08-21T02:16:59;17.10;99.90
45837;DHT22;31548;51.420;-0.040;2022-08-21T02:19:37;17.10;99.90
45837;DHT22;31548;51.420;-0.040;2022-08-21T02:22:08;17.00;99.90
45837;DHT22;31548;51.420;-0.040;2022-08-21T02:24:38;17.10;99.90
45837;DHT22;31548;51.420;-0.040;2022-08-21T02:27:24;17.00;99.90
45837;DHT22;31548;51.420;-0.040;2022-08-21T02:29:56;17.00;99.90
45837;DHT22;31548;51.420;-0.040;2022-08-21T02:32:24;17.10;99.90
45837;DHT22;31548;51.420;-0.040;2022-08-21T02:34:53;17.10;99.90
45837;DHT22;31548;51.420;-0.040;2022-08-21T02:37:22;17.10;99.90
45837;DHT22;31548;51.420;-0.040;2022-08-21T02:39:50;17.10;99.90
45837;DHT22;31548;51.420;-0.040;2022-08-21T02:42:18;17.00;99.90
45837;DHT22;31548;51.420;-0.040;2022-08-21T02:44:46;17.00;99.90
45837;DHT22;31548;51.420;-0.040;2022-08-21T02:47:14;17.00;99.90
45837;DHT22;31548;51.420;-0.040;2022-08-21T02:49:42;17.10;99.90
45837;DHT22;31548;51.420;-0.040;2022-08-21T02:52:10;17.00;99.90
45837;DHT22;31548;51.420;-0.040;2022-08-21T02:54:39;17.00;99.90
45837;DHT22;31548;51.420;-0.040;2022-08-21T02:57:07;17.00;99.90
45837;DHT22;31548;51.420;-0.040;2022-08-21T02:59:35;17.10;99.90
45837;DHT22;31548;51.420;-0.040;2022-08-21T03:02:04;17.00;99.90
45837;DHT22;31548;51.420;-0.040;2022-08-21T03:04:32;17.00;99.90
45837;DHT22;31548;51.420;-0.040;2022-08-21T03:07:00;17.00;99.90
45837;DHT22;31548;51.420;-0.040;2022-08-21T03:09:28;17.00;99.90
45837;DHT22;31548;51.420;-0.040;2022-08-21T03:11:55;17.00;99.90
45837;DHT22;31548;51.420;-0.040;2022-08-21T03:14:23;17.00;99.90
45837;DHT22;31548;51.420;-0.040;2022-08-21T03:16:51;17.00;99.90
45837;DHT22;31548;51.420;-0.040;2022-08-21T03:19:19;16.90;99.90
45837;DHT22;31548;51.420;-0.040;2022-08-21T03:21:48;17.00;99.90
45837;DHT22;31548;51.420;-0.040;2022-08-21T03:24:16;16.90;99.90
45837;DHT22;31548;51.420;-0.040;2022-08-21T03:26:47;16.90;99.90
45837;DHT22;31548;51.420;-0.040;2022-08-21T03:29:16;16.90;99.90
45837;DHT22;31548;51.420;-0.040;2022-08-21T03:31:44;16.90;99.90
45837;DHT22;31548;51.420;-0.040;2022-08-21T03:34:12;16.90;99.90
45837;DHT22;31548;51.420;-0.040;2022-08-21T03:36:40;16.90;99.90
45837;DHT22;31548;51.420;-0.040;2022-08-21T03:39:07;16.90;99.90
45837;DHT22;31548;51.420;-0.040;2022-08-21T03:41:35;16.80;99.90
45837;DHT22;31548;51.420;-0.040;2022-08-21T03:44:03;16.80;99.90
45837;DHT22;31548;51.420;-0.040;2022-08-21T03:46:31;16.80;99.90
45837;DHT22;31548;51.420;-0.040;2022-08-21T03:49:00;16.80;99.90
45837;DHT22;31548;51.420;-0.040;2022-08-21T03:51:28;16.80;99.90
45837;DHT22;31548;51.420;-0.040;2022-08-21T03:53:56;16.80;99.90
45837;DHT22;31548;51.420;-0.040;2022-08-21T03:56:24;16.80;99.90
45837;DHT22;31548;51.420;-0.040;2022-08-21T03:58:54;16.70;99.90
45837;DHT22;31548;51.420;-0.040;2022-08-21T04:01:23;16.70;99.90
45837;DHT22;31548;51.420;-0.040;2022-08-21T04:03:51;16.70;99.90
45837;DHT22;31548;51.420;-0.040;2022-08-21T04:06:19;16.70;99.90
45837;DHT22;31548;51.420;-0.040;2022-08-21T04:08:46;16.70;99.90
45837;DHT22;31548;51.420;-0.040;2022-08-21T04:11:14;16.70;99.90
45837;DHT22;31548;51.420;-0.040;2022-08-21T04:13:42;16.60;99.90
45837;DHT22;31548;51.420;-0.040;2022-08-21T04:16:12;16.60;99.90
45837;DHT22;31548;51.420;-0.040;2022-08-21T04:18:40;16.60;99.90
45837;DHT22;31548;51.420;-0.040;2022-08-21T04:21:10;16.50;99.90
45837;DHT22;31548;51.420;-0.040;2022-08-21T04:23:39;16.50;99.90
45837;DHT22;31548;51.420;-0.040;2022-08-21T04:26:07;16.40;99.90
45837;DHT22;31548;51.420;-0.040;2022-08-21T04:28:35;16.50;99.90
45837;DHT22;31548;51.420;-0.040;2022-08-21T04:31:03;16.50;99.90
45837;DHT22;31548;51.420;-0.040;2022-08-21T04:33:31;16.40;99.90
45837;DHT22;31548;51.420;-0.040;2022-08-21T04:35:59;16.40;99.90
45837;DHT22;31548;51.420;-0.040;2022-08-21T04:38:26;16.40;99.90
45837;DHT22;31548;51.420;-0.040;2022-08-21T04:41:03;16.40;99.90
45837;DHT22;31548;51.420;-0.040;2022-08-21T04:43:32;16.40;99.90
45837;DHT22;31548;51.420;-0.040;2022-08-21T04:46:00;16.40;99.90
45837;DHT22;31548;51.420;-0.040;2022-08-21T04:48:28;16.40;99.90
45837;DHT22;31548;51.420;-0.040;2022-08-21T04:51:02;16.40;99.90
45837;DHT22;31548;51.420;-0.040;2022-08-21T04:53:38;16.40;99.90
45837;DHT22;31548;51.420;-0.040;2022-08-21T04:56:15;16.40;99.90
45837;DHT22;31548;51.420;-0.040;2022-08-21T04:58:43;16.40;99.90
45837;DHT22;31548;51.420;-0.040;2022-08-21T05:01:15;16.50;99.90
45837;DHT22;31548;51.420;-0.040;2022-08-21T05:03:45;16.50;99.90
45837;DHT22;31548;51.420;-0.040;2022-08-21T05:06:15;16.50;99.90
45837;DHT22;31548;51.420;-0.040;2022-08-21T05:08:45;16.50;99.90
45837;DHT22;31548;51.420;-0.040;2022-08-21T05:11:15;16.50;99.90
45837;DHT22;31548;51.420;-0.040;2022-08-21T05:13:43;16.50;99.90
45837;DHT22;31548;51.420;-0.040;2022-08-21T05:16:10;16.40;99.90
45837;DHT22;31548;51.420;-0.040;2022-08-21T05:18:38;16.40;99.90
45837;DHT22;31548;51.420;-0.040;2022-08-21T05:21:06;16.50;99.90
45837;DHT22;31548;51.420;-0.040;2022-08-21T05:23:34;16.50;99.90
45837;DHT22;31548;51.420;-0.040;2022-08-21T05:26:02;16.50;99.90
45837;DHT22;31548;51.420;-0.040;2022-08-21T05:28:32;16.50;99.90
45837;DHT22;31548;51.420;-0.040;2022-08-21T05:31:00;16.60;99.90
45837;DHT22;31548;51.420;-0.040;2022-08-21T05:33:28;16.50;99.90
45837;DHT22;31548;51.420;-0.040;2022-08-21T05:35:56;16.60;99.90
45837;DHT22;31548;51.420;-0.040;2022-08-21T05:38:25;16.60;99.90
45837;DHT22;31548;51.420;-0.040;2022-08-21T05:40:54;16.60;99.90
45837;DHT22;31548;51.420;-0.040;2022-08-21T05:43:23;16.60;99.90
45837;DHT22;31548;51.420;-0.040;2022-08-21T05:45:50;16.70;99.90
45837;DHT22;31548;51.420;-0.040;2022-08-21T05:48:22;16.70;99.90
45837;DHT22;31548;51.420;-0.040;2022-08-21T05:50:52;16.80;99.90
45837;DHT22;31548;51.420;-0.040;2022-08-21T05:53:21;16.80;99.90
45837;DHT22;31548;51.420;-0.040;2022-08-21T05:55:51;16.80;99.90
45837;DHT22;31548;51.420;-0.040;2022-08-21T05:58:20;16.90;99.90
45837;DHT22;31548;51.420;-0.040;2022-08-21T06:00:50;16.90;99.90
45837;DHT22;31548;51.420;-0.040;2022-08-21T06:03:24;16.90;99.90
45837;DHT22;31548;51.420;-0.040;2022-08-21T06:05:53;16.80;99.90
45837;DHT22;31548;51.420;-0.040;2022-08-21T06:08:21;16.90;99.90
45837;DHT22;31548;51.420;-0.040;2022-08-21T06:10:51;16.90;99.90
45837;DHT22;31548;51.420;-0.040;2022-08-21T06:13:20;16.90;99.90
45837;DHT22;31548;51.420;-0.040;2022-08-21T06:15:49;16.90;99.90
45837;DHT22;31548;51.420;-0.040;2022-08-21T06:18:17;16.90;99.90
45837;DHT22;31548;51.420;-0.040;2022-08-21T06:20:45;17.00;99.90
45837;DHT22;31548;51.420;-0.040;2022-08-21T06:23:12;17.00;99.90
45837;DHT22;31548;51.420;-0.040;2022-08-21T06:25:40;17.10;99.90
45837;DHT22;31548;51.420;-0.040;2022-08-21T06:28:09;17.00;99.90
45837;DHT22;31548;51.420;-0.040;2022-08-21T06:30:38;17.10;99.90
45837;DHT22;31548;51.420;-0.040;2022-08-21T06:33:07;17.10;99.90
45837;DHT22;31548;51.420;-0.040;2022-08-21T06:35:35;17.20;99.90
45837;DHT22;31548;51.420;-0.040;2022-08-21T06:38:08;17.30;99.90
45837;DHT22;31548;51.420;-0.040;2022-08-21T06:40:35;17.20;99.90
45837;DHT22;31548;51.420;-0.040;2022-08-21T06:43:15;17.20;99.90
45837;DHT22;31548;51.420;-0.040;2022-08-21T06:45:43;17.20;99.90
45837;DHT22;31548;51.420;-0.040;2022-08-21T06:48:11;17.30;99.90
45837;DHT22;31548;51.420;-0.040;2022-08-21T06:50:46;17.40;99.90
45837;DHT22;31548;51.420;-0.040;2022-08-21T06:53:16;17.40;99.90
45837;DHT22;31548;51.420;-0.040;2022-08-21T06:55:45;17.50;99.90
45837;DHT22;31548;51.420;-0.040;2022-08-21T06:58:14;17.60;99.90
45837;DHT22;31548;51.420;-0.040;2022-08-21T07:00:44;17.60;99.90
45837;DHT22;31548;51.420;-0.040;2022-08-21T07:03:21;17.70;99.90
45837;DHT22;31548;51.420;-0.040;2022-08-21T07:05:50;17.80;99.90
45837;DHT22;31548;51.420;-0.040;2022-08-21T07:08:19;17.90;99.90
45837;DHT22;31548;51.420;-0.040;2022-08-21T07:10:47;18.00;99.90
45837;DHT22;31548;51.420;-0.040;2022-08-21T07:13:17;18.00;99.90
45837;DHT22;31548;51.420;-0.040;2022-08-21T07:15:45;18.10;99.90
45837;DHT22;31548;51.420;-0.040;2022-08-21T07:18:13;18.20;99.90
45837;DHT22;31548;51.420;-0.040;2022-08-21T07:20:41;18.20;99.90
45837;DHT22;31548;51.420;-0.040;2022-08-21T07:23:20;18.30;99.90
45837;DHT22;31548;51.420;-0.040;2022-08-21T07:25:50;18.30;99.90
45837;DHT22;31548;51.420;-0.040;2022-08-21T07:28:17;18.40;99.90
45837;DHT22;31548;51.420;-0.040;2022-08-21T07:30:46;18.50;99.90
45837;DHT22;31548;51.420;-0.040;2022-08-21T07:33:17;18.50;99.90
45837;DHT22;31548;51.420;-0.040;2022-08-21T07:35:45;18.40;99.90
45837;DHT22;31548;51.420;-0.040;2022-08-21T07:38:14;18.40;99.90
45837;DHT22;31548;51.420;-0.040;2022-08-21T07:40:42;18.50;99.90
45837;DHT22;31548;51.420;-0.040;2022-08-21T07:43:10;18.60;99.90
45837;DHT22;31548;51.420;-0.040;2022-08-21T07:45:38;18.60;99.90
45837;DHT22;31548;51.420;-0.040;2022-08-21T07:48:06;18.70;99.90
45837;DHT22;31548;51.420;-0.040;2022-08-21T07:50:41;18.60;99.90
45837;DHT22;31548;51.420;-0.040;2022-08-21T07:53:09;18.70;99.90
45837;DHT22;31548;51.420;-0.040;2022-08-21T07:55:40;18.60;99.90
45837;DHT22;31548;51.420;-0.040;2022-08-21T07:58:08;18.70;99.90
45837;DHT22;31548;51.420;-0.040;2022-08-21T08:00:36;18.60;99.90
45837;DHT22;31548;51.420;-0.040;2022-08-21T08:03:04;18.60;99.90
45837;DHT22;31548;51.420;-0.040;2022-08-21T08:05:36;18.80;99.90
45837;DHT22;31548;51.420;-0.040;2022-08-21T08:08:07;18.90;99.90
45837;DHT22;31548;51.420;-0.040;2022-08-21T08:10:35;18.90;99.90
45837;DHT22;31548;51.420;-0.040;2022-08-21T08:13:04;19.00;99.90
45837;DHT22;31548;51.420;-0.040;2022-08-21T08:15:37;19.10;99.90
45837;DHT22;31548;51.420;-0.040;2022-08-21T08:18:04;19.00;99.90
45837;DHT22;31548;51.420;-0.040;2022-08-21T08:20:32;19.10;99.90
45837;DHT22;31548;51.420;-0.040;2022-08-21T08:23:00;19.20;99.90
45837;DHT22;31548;51.420;-0.040;2022-08-21T08:25:28;19.20;99.90
45837;DHT22;31548;51.420;-0.040;2022-08-21T08:28:03;19.20;99.90
45837;DHT22;31548;51.420;-0.040;2022-08-21T08:30:45;19.30;99.90
45837;DHT22;31548;51.420;-0.040;2022-08-21T08:33:14;19.30;99.90
45837;DHT22;31548;51.420;-0.040;2022-08-21T08:35:48;19.40;99.90
45837;DHT22;31548;51.420;-0.040;2022-08-21T08:38:19;19.50;99.90
45837;DHT22;31548;51.420;-0.040;2022-08-21T08:41:06;19.40;99.90
45837;DHT22;31548;51.420;-0.040;2022-08-21T08:43:35;19.40;99.90
45837;DHT22;31548;51.420;-0.040;2022-08-21T08:46:08;19.50;99.90
45837;DHT22;31548;51.420;-0.040;2022-08-21T08:54:09;19.60;99.90
45837;DHT22;31548;51.420;-0.040;2022-08-21T08:56:39;19.70;99.90
45837;DHT22;31548;51.420;-0.040;2022-08-21T08:59:20;19.80;99.90
45837;DHT22;31548;51.420;-0.040;2022-08-21T09:01:51;19.90;99.90
45837;DHT22;31548;51.420;-0.040;2022-08-21T09:04:25;19.90;99.90
45837;DHT22;31548;51.420;-0.040;2022-08-21T09:15:19;20.20;99.90
45837;DHT22;31548;51.420;-0.040;2022-08-21T09:26:40;20.10;99.90
45837;DHT22;31548;51.420;-0.040;2022-08-21T09:29:11;19.90;99.90
45837;DHT22;31548;51.420;-0.040;2022-08-21T09:31:39;19.90;99.90
45837;DHT22;31548;51.420;-0.040;2022-08-21T09:34:10;20.10;99.90
45837;DHT22;31548;51.420;-0.040;2022-08-21T09:36:46;20.20;99.90
45837;DHT22;31548;51.420;-0.040;2022-08-21T09:42:03;20.60;99.90
45837;DHT22;31548;51.420;-0.040;2022-08-21T09:44:34;20.60;99.90
45837;DHT22;31548;51.420;-0.040;2022-08-21T09:47:07;20.60;99.90
45837;DHT22;31548;51.420;-0.040;2022-08-21T09:49:39;20.80;99.90
45837;DHT22;31548;51.420;-0.040;2022-08-21T09:52:17;20.90;99.20
45837;DHT22;31548;51.420;-0.040;2022-08-21T09:54:46;21.10;99.20
45837;DHT22;31548;51.420;-0.040;2022-08-21T09:57:26;21.30;98.90
45837;DHT22;31548;51.420;-0.040;2022-08-21T10:00:20;21.50;98.80
45837;DHT22;31548;51.420;-0.040;2022-08-21T10:02:51;21.60;98.30
45837;DHT22;31548;51.420;-0.040;2022-08-21T10:05:26;21.60;98.40
45837;DHT22;31548;51.420;-0.040;2022-08-21T10:07:54;21.80;98.10
45837;DHT22;31548;51.420;-0.040;2022-08-21T10:10:26;22.00;97.50
45837;DHT22;31548;51.420;-0.040;2022-08-21T10:13:16;22.20;97.60
45837;DHT22;31548;51.420;-0.040;2022-08-21T10:18:48;22.10;95.70
45837;DHT22;31548;51.420;-0.040;2022-08-21T10:24:21;22.20;97.30
45837;DHT22;31548;51.420;-0.040;2022-08-21T10:27:29;22.20;96.30
45837;DHT22;31548;51.420;-0.040;2022-08-21T10:30:08;22.20;95.80
45837;DHT22;31548;51.420;-0.040;2022-08-21T10:35:18;22.20;95.40
45837;DHT22;31548;51.420;-0.040;2022-08-21T10:40:48;22.10;95.10
45837;DHT22;31548;51.420;-0.040;2022-08-21T10:43:39;22.10;95.10
45837;DHT22;31548;51.420;-0.040;2022-08-21T10:49:21;22.40;94.90
45837;DHT22;31548;51.420;-0.040;2022-08-21T10:51:53;22.20;94.50
45837;DHT22;31548;51.420;-0.040;2022-08-21T10:57:34;22.20;95.10
45837;DHT22;31548;51.420;-0.040;2022-08-21T11:00:10;22.20;95.40
45837;DHT22;31548;51.420;-0.040;2022-08-21T11:02:49;22.40;95.10
45837;DHT22;31548;51.420;-0.040;2022-08-21T11:05:35;22.40;94.90
45837;DHT22;31548;51.420;-0.040;2022-08-21T11:08:17;22.60;95.70
45837;DHT22;31548;51.420;-0.040;2022-08-21T11:10:52;22.60;94.10
45837;DHT22;31548;51.420;-0.040;2022-08-21T11:13:43;22.50;94.30
45837;DHT22;31548;51.420;-0.040;2022-08-21T11:16:42;22.40;94.60
45837;DHT22;31548;51.420;-0.040;2022-08-21T11:19:24;22.40;94.70
45837;DHT22;31548;51.420;-0.040;2022-08-21T11:22:25;22.30;95.30
45837;DHT22;31548;51.420;-0.040;2022-08-21T11:25:02;22.30;95.10
45837;DHT22;31548;51.420;-0.040;2022-08-21T11:27:45;22.40;95.20
45837;DHT22;31548;51.420;-0.040;2022-08-21T11:30:14;22.30;94.40
45837;DHT22;31548;51.420;-0.040;2022-08-21T11:38:34;22.40;95.50
45837;DHT22;31548;51.420;-0.040;2022-08-21T11:41:16;22.10;95.50
45837;DHT22;31548;51.420;-0.040;2022-08-21T11:44:02;22.30;95.50
45837;DHT22;31548;51.420;-0.040;2022-08-21T11:50:11;22.50;94.90
45837;DHT22;31548;51.420;-0.040;2022-08-21T11:53:24;22.40;95.40
45837;DHT22;31548;51.420;-0.040;2022-08-21T11:56:34;22.50;95.10
45837;DHT22;31548;51.420;-0.040;2022-08-21T11:59:10;22.70;95.10
45837;DHT22;31548;51.420;-0.040;2022-08-21T12:01:43;22.50;94.50
45837;DHT22;31548;51.420;-0.040;2022-08-21T12:04:34;22.60;95.80
45837;DHT22;31548;51.420;-0.040;2022-08-21T12:07:28;22.70;95.10
45837;DHT22;31548;51.420;-0.040;2022-08-21T12:09:57;22.80;94.50
45837;DHT22;31548;51.420;-0.040;2022-08-21T12:12:32;22.90;94.50
45837;DHT22;31548;51.420;-0.040;2022-08-21T12:23:16;23.20;95.40
45837;DHT22;31548;51.420;-0.040;2022-08-21T12:26:02;23.20;94.40
45837;DHT22;31548;51.420;-0.040;2022-08-21T12:28:31;23.20;94.50
45837;DHT22;31548;51.420;-0.040;2022-08-21T12:30:59;23.00;94.90
45837;DHT22;31548;51.420;-0.040;2022-08-21T12:33:34;23.20;94.70
45837;DHT22;31548;51.420;-0.040;2022-08-21T12:36:17;23.20;94.50
45837;DHT22;31548;51.420;-0.040;2022-08-21T12:39:03;23.30;94.30
45837;DHT22;31548;51.420;-0.040;2022-08-21T12:41:44;23.30;94.70
45837;DHT22;31548;51.420;-0.040;2022-08-21T12:44:20;23.50;93.60
45837;DHT22;31548;51.420;-0.040;2022-08-21T12:47:02;23.60;93.70
45837;DHT22;31548;51.420;-0.040;2022-08-21T12:50:26;23.90;93.40
45837;DHT22;31548;51.420;-0.040;2022-08-21T12:52:41;24.10;92.70
45837;DHT22;31548;51.420;-0.040;2022-08-21T12:55:14;24.30;92.00
45837;DHT22;31548;51.420;-0.040;2022-08-21T12:57:43;24.50;93.30
45837;DHT22;31548;51.420;-0.040;2022-08-21T13:00:12;24.40;91.10
45837;DHT22;31548;51.420;-0.040;2022-08-21T13:02:49;24.50;91.20
45837;DHT22;31548;51.420;-0.040;2022-08-21T13:05:33;24.70;92.20
45837;DHT22;31548;51.420;-0.040;2022-08-21T13:08:07;24.60;90.90
45837;DHT22;31548;51.420;-0.040;2022-08-21T13:10:36;25.00;91.40
45837;DHT22;31548;51.420;-0.040;2022-08-21T13:13:09;25.10;91.00
45837;DHT22;31548;51.420;-0.040;2022-08-21T13:15:41;25.50;90.90
45837;DHT22;31548;51.420;-0.040;2022-08-21T13:18:24;25.40;90.80
45837;DHT22;31548;51.420;-0.040;2022-08-21T13:21:20;25.70;90.30
45837;DHT22;31548;51.420;-0.040;2022-08-21T13:23:49;25.60;90.30
45837;DHT22;31548;51.420;-0.040;2022-08-21T13:26:19;25.40;89.60
45837;DHT22;31548;51.420;-0.040;2022-08-21T13:28:49;25.30;90.30
45837;DHT22;31548;51.420;-0.040;2022-08-21T13:31:29;25.60;90.50
45837;DHT22;31548;51.420;-0.040;2022-08-21T13:33:59;25.70;90.40
45837;DHT22;31548;51.420;-0.040;2022-08-21T13:36:34;25.60;90.00
45837;DHT22;31548;51.420;-0.040;2022-08-21T13:39:04;25.50;90.80
45837;DHT22;31548;51.420;-0.040;2022-08-21T13:41:36;25.80;91.20
45837;DHT22;31548;51.420;-0.040;2022-08-21T13:46:48;26.30;86.30
45837;DHT22;31548;51.420;-0.040;2022-08-21T13:49:18;26.20;87.60
45837;DHT22;31548;51.420;-0.040;2022-08-21T13:51:48;26.60;87.00
45837;DHT22;31548;51.420;-0.040;2022-08-21T13:54:27;26.40;87.20
45837;DHT22;31548;51.420;-0.040;2022-08-21T13:56:57;26.20;86.90
45837;DHT22;31548;51.420;-0.040;2022-08-21T13:59:34;26.00;87.10
45837;DHT22;31548;51.420;-0.040;2022-08-21T14:05:04;26.40;86.20
45837;DHT22;31548;51.420;-0.040;2022-08-21T14:07:38;26.30;87.10
45837;DHT22;31548;51.420;-0.040;2022-08-21T14:10:11;26.70;87.20
45837;DHT22;31548;51.420;-0.040;2022-08-21T14:13:05;26.60;87.10
45837;DHT22;31548;51.420;-0.040;2022-08-21T14:15:34;26.50;87.80
45837;DHT22;31548;51.420;-0.040;2022-08-21T14:18:17;26.30;86.90
45837;DHT22;31548;51.420;-0.040;2022-08-21T14:20:45;26.50;87.90
45837;DHT22;31548;51.420;-0.040;2022-08-21T14:23:27;26.80;86.90
45837;DHT22;31548;51.420;-0.040;2022-08-21T14:25:59;27.10;86.30
45837;DHT22;31548;51.420;-0.040;2022-08-21T14:28:30;27.50;86.10
45837;DHT22;31548;51.420;-0.040;2022-08-21T14:31:13;27.50;85.60
45837;DHT22;31548;51.420;-0.040;2022-08-21T14:33:42;27.90;84.40
45837;DHT22;31548;51.420;-0.040;2022-08-21T14:36:10;27.80;81.90
45837;DHT22;31548;51.420;-0.040;2022-08-21T14:38:46;27.40;83.30
45837;DHT22;31548;51.420;-0.040;2022-08-21T14:41:19;27.10;83.30
45837;DHT22;31548;51.420;-0.040;2022-08-21T14:43:51;27.30;83.60
45837;DHT22;31548;51.420;-0.040;2022-08-21T14:46:34;27.70;83.30
45837;DHT22;31548;51.420;-0.040;2022-08-21T14:49:24;28.00;82.70
45837;DHT22;31548;51.420;-0.040;2022-08-21T14:51:55;28.40;83.30
45837;DHT22;31548;51.420;-0.040;2022-08-21T14:54:27;29.00;82.10
45837;DHT22;31548;51.420;-0.040;2022-08-21T14:57:06;29.00;81.90
45837;DHT22;31548;51.420;-0.040;2022-08-21T14:59:37;29.30;81.90
45837;DHT22;31548;51.420;-0.040;2022-08-21T15:02:05;29.60;80.60
45837;DHT22;31548;51.420;-0.040;2022-08-21T15:04:34;30.10;81.00
45837;DHT22;31548;51.420;-0.040;2022-08-21T15:07:02;30.40;78.50
45837;DHT22;31548;51.420;-0.040;2022-08-21T15:09:30;30.40;79.00
45837;DHT22;31548;51.420;-0.040;2022-08-21T15:12:00;30.90;79.40
45837;DHT22;31548;51.420;-0.040;2022-08-21T15:14:33;31.20;78.20
45837;DHT22;31548;51.420;-0.040;2022-08-21T15:17:05;31.60;77.80
45837;DHT22;31548;51.420;-0.040;2022-08-21T15:19:34;31.80;77.20
45837;DHT22;31548;51.420;-0.040;2022-08-21T15:22:02;31.90;76.80
45837;DHT22;31548;51.420;-0.040;2022-08-21T15:24:31;32.40;76.70
45837;DHT22;31548;51.420;-0.040;2022-08-21T15:27:01;32.60;75.60
45837;DHT22;31548;51.420;-0.040;2022-08-21T15:29:30;32.80;74.60
45837;DHT22;31548;51.420;-0.040;2022-08-21T15:32:02;32.90;74.10
45837;DHT22;31548;51.420;-0.040;2022-08-21T15:34:31;32.80;73.00
45837;DHT22;31548;51.420;-0.040;2022-08-21T15:37:00;32.60;72.40
45837;DHT22;31548;51.420;-0.040;2022-08-21T15:39:27;32.70;73.80
45837;DHT22;31548;51.420;-0.040;2022-08-21T15:41:57;33.00;72.20
45837;DHT22;31548;51.420;-0.040;2022-08-21T15:44:29;33.20;70.90
45837;DHT22;31548;51.420;-0.040;2022-08-21T15:46:57;33.30;70.50
45837;DHT22;31548;51.420;-0.040;2022-08-21T15:49:26;33.80;71.20
45837;DHT22;31548;51.420;-0.040;2022-08-21T15:51:54;34.10;70.00
45837;DHT22;31548;51.420;-0.040;2022-08-21T15:54:22;34.20;69.50
45837;DHT22;31548;51.420;-0.040;2022-08-21T15:56:50;33.70;68.70
45837;DHT22;31548;51.420;-0.040;2022-08-21T15:59:21;33.00;68.80
45837;DHT22;31548;51.420;-0.040;2022-08-21T16:01:50;32.70;69.10
45837;DHT22;31548;51.420;-0.040;2022-08-21T16:04:23;32.30;68.90
45837;DHT22;31548;51.420;-0.040;2022-08-21T16:06:52;31.60;69.10
45837;DHT22;31548;51.420;-0.040;2022-08-21T16:09:29;31.10;69.60
45837;DHT22;31548;51.420;-0.040;2022-08-21T16:11:59;30.50;69.80
45837;DHT22;31548;51.420;-0.040;2022-08-21T16:14:29;30.20;71.70
45837;DHT22;31548;51.420;-0.040;2022-08-21T16:16:58;29.70;71.10
45837;DHT22;31548;51.420;-0.040;2022-08-21T16:19:27;29.50;71.40
45837;DHT22;31548;51.420;-0.040;2022-08-21T16:21:56;29.70;72.50
45837;DHT22;31548;51.420;-0.040;2022-08-21T16:24:24;30.10;71.50
45837;DHT22;31548;51.420;-0.040;2022-08-21T16:26:53;30.70;71.00
45837;DHT22;31548;51.420;-0.040;2022-08-21T16:29:34;31.00;70.80
45837;DHT22;31548;51.420;-0.040;2022-08-21T16:32:04;31.60;70.70
45837;DHT22;31548;51.420;-0.040;2022-08-21T16:34:33;32.10;71.00
45837;DHT22;31548;51.420;-0.040;2022-08-21T16:37:01;32.60;70.60
45837;DHT22;31548;51.420;-0.040;2022-08-21T16:39:29;32.90;69.40
45837;DHT22;31548;51.420;-0.040;2022-08-21T16:41:57;33.30;69.50
45837;DHT22;31548;51.420;-0.040;2022-08-21T16:44:26;32.50;67.60
45837;DHT22;31548;51.420;-0.040;2022-08-21T16:46:57;32.00;68.70
45837;DHT22;31548;51.420;-0.040;2022-08-21T16:49:26;31.60;69.40
45837;DHT22;31548;51.420;-0.040;2022-08-21T16:51:55;31.30;69.60